Time;durP1;ratioP1;P1;durP2;ratioP2;P2;SDS_P1;SDS_P2;PMS_P1;PMS_P2;Temp;Humidity;BMP_temperature;BMP_pressure;BME280_temperature;BME280_humidity;BME280_pressure;Samples;Min_cycle;Max_cycle;Signal;HPM_P1;HPM_P2
2024/04/13 00:00:31;;;;;;;5.4;3.6;;;;;;;;;;;;;
2024/04/13 00:02:56;;;;;;;3.4;3.1;;;;;;;;;;;;;
2024/04/13 00:05:21;;;;;;;4.9;3.3;;;;;;;;;;;;;
2024/04/13 00:07:46;;;;;;;3.8;2.9;;;;;;;;;;;;;
2024/04/13 00:10:11;;;;;;;4.3;3;;;;;;;;;;;;;
2024/04/13 00:12:36;;;;;;;4.5;3.4;;;;;;;;;;;;;
2024/04/13 00:15:02;;;;;;;5;3;;;;;;;;;;;;;
2024/04/13 00:17:27;;;;;;;3.4;3;;;;;;;;;;;;;
2024/04/13 00:19:51;;;;;;;4.2;3.4;;;;;;;;;;;;;
2024/04/13 00:22:17;;;;;;;4.5;3;;;;;;;;;;;;;
2024/04/13 00:24:42;;;;;;;6.9;3.3;;;;;;;;;;;;;
2024/04/13 00:27:07;;;;;;;5.8;3.7;;;;;;;;;;;;;
2024/04/13 00:29:33;;;;;;;5.8;3.5;;;;;;;;;;;;;
2024/04/13 00:31:57;;;;;;;4.7;3.8;;;;;;;;;;;;;
2024/04/13 00:34:22;;;;;;;5;3.3;;;;;;;;;;;;;
2024/04/13 00:36:47;;;;;;;4.8;3.5;;;;;;;;;;;;;
2024/04/13 00:39:12;;;;;;;4.7;3.3;;;;;;;;;;;;;
2024/04/13 00:41:38;;;;;;;5.8;3.6;;;;;;;;;;;;;
2024/04/13 00:44:04;;;;;;;6.2;3.3;;;;;;;;;;;;;
2024/04/13 00:46:31;;;;;;;5.7;3.4;;;;;;;;;;;;;
2024/04/13 00:48:54;;;;;;;5.7;3.1;;;;;;;;;;;;;
2024/04/13 00:51:19;;;;;;;4.6;3.4;;;;;;;;;;;;;
2024/04/13 00:53:44;;;;;;;5.9;3.4;;;;;;;;;;;;;
2024/04/13 00:56:09;;;;;;;4.6;3.5;;;;;;;;;;;;;
2024/04/13 00:58:35;;;;;;;4.2;3.3;;;;;;;;;;;;;
2024/04/13 01:01:00;;;;;;;4;3.2;;;;;;;;;;;;;
2024/04/13 01:03:26;;;;;;;4.6;3.2;;;;;;;;;;;;;
2024/04/13 01:05:50;;;;;;;4.2;3.3;;;;;;;;;;;;;
2024/04/13 01:08:15;;;;;;;6.2;3.7;;;;;;;;;;;;;
2024/04/13 01:10:41;;;;;;;4.4;3.5;;;;;;;;;;;;;
2024/04/13 01:13:07;;;;;;;4.3;3.2;;;;;;;;;;;;;
2024/04/13 01:15:30;;;;;;;6.3;3.4;;;;;;;;;;;;;
2024/04/13 01:17:56;;;;;;;4.4;3.2;;;;;;;;;;;;;
2024/04/13 01:20:21;;;;;;;5.3;3;;;;;;;;;;;;;
2024/04/13 01:22:47;;;;;;;5;3.1;;;;;;;;;;;;;
2024/04/13 01:25:13;;;;;;;3.8;3;;;;;;;;;;;;;
2024/04/13 01:27:36;;;;;;;6.2;3.4;;;;;;;;;;;;;
2024/04/13 01:30:01;;;;;;;6.1;3.1;;;;;;;;;;;;;
2024/04/13 01:32:26;;;;;;;6.6;2.9;;;;;;;;;;;;;
2024/04/13 01:34:52;;;;;;;4.5;3.2;;;;;;;;;;;;;
2024/04/13 01:37:17;;;;;;;3.9;3.4;;;;;;;;;;;;;
2024/04/13 01:39:41;;;;;;;4.2;2.9;;;;;;;;;;;;;
2024/04/13 01:42:07;;;;;;;5.2;3.5;;;;;;;;;;;;;
2024/04/13 01:44:31;;;;;;;6.2;3.2;;;;;;;;;;;;;
2024/04/13 01:46:58;;;;;;;4.8;3.3;;;;;;;;;;;;;
2024/04/13 01:49:22;;;;;;;4.1;3.1;;;;;;;;;;;;;
2024/04/13 01:51:47;;;;;;;4.7;3.5;;;;;;;;;;;;;
2024/04/13 01:54:12;;;;;;;4.1;3.1;;;;;;;;;;;;;
2024/04/13 01:56:37;;;;;;;4.2;3.1;;;;;;;;;;;;;
2024/04/13 01:59:02;;;;;;;3.2;2.9;;;;;;;;;;;;;
2024/04/13 02:01:28;;;;;;;4.6;3;;;;;;;;;;;;;
2024/04/13 02:03:53;;;;;;;5.3;4;;;;;;;;;;;;;
2024/04/13 02:06:18;;;;;;;5.6;3;;;;;;;;;;;;;
2024/04/13 02:08:43;;;;;;;5.1;3.3;;;;;;;;;;;;;
2024/04/13 02:11:08;;;;;;;4.4;3.5;;;;;;;;;;;;;
2024/04/13 02:13:33;;;;;;;3.8;3.3;;;;;;;;;;;;;
2024/04/13 02:15:58;;;;;;;5.1;3.1;;;;;;;;;;;;;
2024/04/13 02:18:24;;;;;;;3.3;3;;;;;;;;;;;;;
2024/04/13 02:20:49;;;;;;;4.3;3.2;;;;;;;;;;;;;
2024/04/13 02:23:14;;;;;;;3.9;3.2;;;;;;;;;;;;;
2024/04/13 02:25:39;;;;;;;5.2;3.6;;;;;;;;;;;;;
2024/04/13 02:28:05;;;;;;;5.2;3.5;;;;;;;;;;;;;
2024/04/13 02:30:30;;;;;;;4.9;3.4;;;;;;;;;;;;;
2024/04/13 02:32:54;;;;;;;6.4;3.4;;;;;;;;;;;;;
2024/04/13 02:35:19;;;;;;;5.2;3.1;;;;;;;;;;;;;
2024/04/13 02:37:45;;;;;;;4.7;3.5;;;;;;;;;;;;;
2024/04/13 02:40:10;;;;;;;3.1;2.8;;;;;;;;;;;;;
2024/04/13 02:42:35;;;;;;;5.1;3.2;;;;;;;;;;;;;
2024/04/13 02:45:00;;;;;;;4.7;3.4;;;;;;;;;;;;;
2024/04/13 02:47:25;;;;;;;4;2.8;;;;;;;;;;;;;
2024/04/13 02:49:50;;;;;;;5.2;3;;;;;;;;;;;;;
2024/04/13 02:52:15;;;;;;;5;3.1;;;;;;;;;;;;;
2024/04/13 02:54:40;;;;;;;5.4;3.3;;;;;;;;;;;;;
2024/04/13 02:57:05;;;;;;;5.4;3.5;;;;;;;;;;;;;
2024/04/13 02:59:31;;;;;;;5.5;3.6;;;;;;;;;;;;;
2024/04/13 03:01:56;;;;;;;5.1;3.3;;;;;;;;;;;;;
2024/04/13 03:04:21;;;;;;;3.9;3;;;;;;;;;;;;;
2024/04/13 03:06:46;;;;;;;7;3.4;;;;;;;;;;;;;
2024/04/13 03:09:12;;;;;;;4.5;3.3;;;;;;;;;;;;;
2024/04/13 03:11:37;;;;;;;4.8;3.3;;;;;;;;;;;;;
2024/04/13 03:14:01;;;;;;;4;3.2;;;;;;;;;;;;;
2024/04/13 03:16:26;;;;;;;5.1;3.1;;;;;;;;;;;;;
2024/04/13 03:18:52;;;;;;;6;3.5;;;;;;;;;;;;;
2024/04/13 03:21:16;;;;;;;3.2;2.9;;;;;;;;;;;;;
2024/04/13 03:23:42;;;;;;;4.1;3.2;;;;;;;;;;;;;
2024/04/13 03:26:07;;;;;;;6.9;4;;;;;;;;;;;;;
2024/04/13 03:28:32;;;;;;;5.1;3.9;;;;;;;;;;;;;
2024/04/13 03:30:57;;;;;;;5.8;3.4;;;;;;;;;;;;;
2024/04/13 03:33:22;;;;;;;4.1;3.7;;;;;;;;;;;;;
2024/04/13 03:35:47;;;;;;;5.7;3.1;;;;;;;;;;;;;
2024/04/13 03:38:13;;;;;;;5.3;3.2;;;;;;;;;;;;;
2024/04/13 03:40:39;;;;;;;5.4;3.7;;;;;;;;;;;;;
2024/04/13 03:43:03;;;;;;;7.2;3.5;;;;;;;;;;;;;
2024/04/13 03:45:28;;;;;;;6.7;3.1;;;;;;;;;;;;;
2024/04/13 03:47:55;;;;;;;8.6;3.1;;;;;;;;;;;;;
2024/04/13 03:50:18;;;;;;;8.8;3.1;;;;;;;;;;;;;
2024/04/13 03:52:43;;;;;;;6.2;3.3;;;;;;;;;;;;;
2024/04/13 03:55:08;;;;;;;4.1;2.8;;;;;;;;;;;;;
2024/04/13 03:57:34;;;;;;;4.9;2.8;;;;;;;;;;;;;
2024/04/13 03:59:59;;;;;;;4.2;2.8;;;;;;;;;;;;;
2024/04/13 04:02:29;;;;;;;5.1;3.2;;;;;;;;;;;;;
2024/04/13 04:04:54;;;;;;;3.3;2.5;;;;;;;;;;;;;
2024/04/13 04:07:19;;;;;;;4.9;2.9;;;;;;;;;;;;;
2024/04/13 04:09:44;;;;;;;4;2.8;;;;;;;;;;;;;
2024/04/13 04:12:10;;;;;;;4.2;2.6;;;;;;;;;;;;;
2024/04/13 04:14:35;;;;;;;4.6;2.9;;;;;;;;;;;;;
2024/04/13 04:17:00;;;;;;;6.3;3.3;;;;;;;;;;;;;
2024/04/13 04:19:25;;;;;;;6.1;3.2;;;;;;;;;;;;;
2024/04/13 04:21:50;;;;;;;7.8;3.3;;;;;;;;;;;;;
2024/04/13 04:24:15;;;;;;;6.4;3.6;;;;;;;;;;;;;
2024/04/13 04:26:42;;;;;;;5.1;3.5;;;;;;;;;;;;;
2024/04/13 04:29:05;;;;;;;11.8;4.9;;;;;;;;;;;;;
2024/04/13 04:31:35;;;;;;;8.4;6;;;;;;;;;;;;;
2024/04/13 04:34:00;;;;;;;8.6;4.6;;;;;;;;;;;;;
2024/04/13 04:36:21;;;;;;;5.9;3.4;;;;;;;;;;;;;
2024/04/13 04:38:46;;;;;;;4.8;3;;;;;;;;;;;;;
2024/04/13 04:41:41;;;;;;;6.4;3.5;;;;;;;;;;;;;
2024/04/13 04:44:06;;;;;;;8.7;3.9;;;;;;;;;;;;;
2024/04/13 04:46:31;;;;;;;5.9;3.5;;;;;;;;;;;;;
2024/04/13 04:48:56;;;;;;;6.7;3.7;;;;;;;;;;;;;
2024/04/13 04:51:21;;;;;;;5.4;3.3;;;;;;;;;;;;;
2024/04/13 04:53:46;;;;;;;6.3;3.8;;;;;;;;;;;;;
2024/04/13 04:56:12;;;;;;;9.8;3.9;;;;;;;;;;;;;
2024/04/13 04:58:36;;;;;;;7.2;3.7;;;;;;;;;;;;;
2024/04/13 05:01:02;;;;;;;7.1;3.6;;;;;;;;;;;;;
2024/04/13 05:03:27;;;;;;;4.6;3.2;;;;;;;;;;;;;
2024/04/13 05:05:52;;;;;;;9.8;3.6;;;;;;;;;;;;;
2024/04/13 05:08:17;;;;;;;4;3.1;;;;;;;;;;;;;
2024/04/13 05:10:42;;;;;;;6.8;3.4;;;;;;;;;;;;;
2024/04/13 05:13:07;;;;;;;8.7;4.1;;;;;;;;;;;;;
2024/04/13 05:15:32;;;;;;;6.4;3.5;;;;;;;;;;;;;
2024/04/13 05:17:58;;;;;;;7.1;3.2;;;;;;;;;;;;;
2024/04/13 05:20:23;;;;;;;4.9;3.2;;;;;;;;;;;;;
2024/04/13 05:22:48;;;;;;;4.5;3.2;;;;;;;;;;;;;
2024/04/13 05:25:13;;;;;;;6.2;3;;;;;;;;;;;;;
2024/04/13 05:27:39;;;;;;;5.3;3.1;;;;;;;;;;;;;
2024/04/13 05:30:04;;;;;;;5.4;3.1;;;;;;;;;;;;;
2024/04/13 05:32:28;;;;;;;5.3;3;;;;;;;;;;;;;
2024/04/13 05:34:54;;;;;;;4.4;2.8;;;;;;;;;;;;;
2024/04/13 05:37:18;;;;;;;6.6;3;;;;;;;;;;;;;
2024/04/13 05:39:43;;;;;;;5.9;3.3;;;;;;;;;;;;;
2024/04/13 05:42:08;;;;;;;5;2.8;;;;;;;;;;;;;
2024/04/13 05:44:34;;;;;;;5.9;2.6;;;;;;;;;;;;;
2024/04/13 05:46:59;;;;;;;3.7;2.7;;;;;;;;;;;;;
2024/04/13 05:49:24;;;;;;;5.4;2.5;;;;;;;;;;;;;
2024/04/13 05:51:50;;;;;;;6.6;2.8;;;;;;;;;;;;;
2024/04/13 05:54:14;;;;;;;5.8;2.9;;;;;;;;;;;;;
2024/04/13 05:56:39;;;;;;;3.4;2.4;;;;;;;;;;;;;
2024/04/13 05:59:04;;;;;;;5.1;2.6;;;;;;;;;;;;;
2024/04/13 06:01:31;;;;;;;5.5;3.2;;;;;;;;;;;;;
2024/04/13 06:03:54;;;;;;;5.4;2.7;;;;;;;;;;;;;
2024/04/13 06:06:19;;;;;;;4.1;2.7;;;;;;;;;;;;;
2024/04/13 06:08:45;;;;;;;6.2;2.2;;;;;;;;;;;;;
2024/04/13 06:11:10;;;;;;;7.4;2.6;;;;;;;;;;;;;
2024/04/13 06:13:35;;;;;;;6.1;2.5;;;;;;;;;;;;;
2024/04/13 06:16:00;;;;;;;5.9;2.7;;;;;;;;;;;;;
2024/04/13 06:18:25;;;;;;;5.6;2.4;;;;;;;;;;;;;
2024/04/13 06:20:50;;;;;;;6.3;2.2;;;;;;;;;;;;;
2024/04/13 06:23:17;;;;;;;3.4;1.8;;;;;;;;;;;;;
2024/04/13 06:25:40;;;;;;;2.5;1.6;;;;;;;;;;;;;
2024/04/13 06:28:06;;;;;;;4.6;1.9;;;;;;;;;;;;;
2024/04/13 06:30:31;;;;;;;3.1;1.6;;;;;;;;;;;;;
2024/04/13 06:32:56;;;;;;;3.9;1.8;;;;;;;;;;;;;
2024/04/13 06:35:21;;;;;;;4.3;2;;;;;;;;;;;;;
2024/04/13 06:37:46;;;;;;;3.5;1.7;;;;;;;;;;;;;
2024/04/13 06:40:12;;;;;;;4.7;2.1;;;;;;;;;;;;;
2024/04/13 06:42:36;;;;;;;6;2.1;;;;;;;;;;;;;
2024/04/13 06:45:02;;;;;;;6.1;1.8;;;;;;;;;;;;;
2024/04/13 06:47:26;;;;;;;3.4;1.6;;;;;;;;;;;;;
2024/04/13 06:49:51;;;;;;;4.7;1.7;;;;;;;;;;;;;
2024/04/13 06:52:16;;;;;;;5.3;1.7;;;;;;;;;;;;;
2024/04/13 06:54:42;;;;;;;3.8;1.9;;;;;;;;;;;;;
2024/04/13 06:57:07;;;;;;;6.7;1.7;;;;;;;;;;;;;
2024/04/13 06:59:33;;;;;;;5;2.1;;;;;;;;;;;;;
2024/04/13 07:01:57;;;;;;;3.7;1.7;;;;;;;;;;;;;
2024/04/13 07:04:22;;;;;;;3.8;1.6;;;;;;;;;;;;;
2024/04/13 07:06:47;;;;;;;3.3;1.8;;;;;;;;;;;;;
2024/04/13 07:09:13;;;;;;;4.4;1.4;;;;;;;;;;;;;
2024/04/13 07:11:37;;;;;;;3.2;1.6;;;;;;;;;;;;;
2024/04/13 07:14:03;;;;;;;3.3;1.6;;;;;;;;;;;;;
2024/04/13 07:16:28;;;;;;;3.5;1.5;;;;;;;;;;;;;
2024/04/13 07:18:53;;;;;;;5.1;1.8;;;;;;;;;;;;;
2024/04/13 07:21:18;;;;;;;2.6;1.6;;;;;;;;;;;;;
2024/04/13 07:23:43;;;;;;;3.9;1.7;;;;;;;;;;;;;
2024/04/13 07:26:08;;;;;;;2.8;1.6;;;;;;;;;;;;;
2024/04/13 07:28:34;;;;;;;3.4;1.5;;;;;;;;;;;;;
2024/04/13 07:30:58;;;;;;;3.5;1.6;;;;;;;;;;;;;
2024/04/13 07:33:23;;;;;;;4;1.5;;;;;;;;;;;;;
2024/04/13 07:35:49;;;;;;;6;1.9;;;;;;;;;;;;;
2024/04/13 07:38:14;;;;;;;4.9;1.2;;;;;;;;;;;;;
2024/04/13 07:40:39;;;;;;;4.2;1.5;;;;;;;;;;;;;
2024/04/13 07:43:04;;;;;;;3.3;1.3;;;;;;;;;;;;;
2024/04/13 07:45:29;;;;;;;3;1.2;;;;;;;;;;;;;
2024/04/13 07:47:54;;;;;;;6;1.9;;;;;;;;;;;;;
2024/04/13 07:50:19;;;;;;;4;1.4;;;;;;;;;;;;;
2024/04/13 07:52:45;;;;;;;2.2;1.3;;;;;;;;;;;;;
2024/04/13 07:55:09;;;;;;;2.9;1.2;;;;;;;;;;;;;
2024/04/13 07:57:34;;;;;;;2.7;1.1;;;;;;;;;;;;;
2024/04/13 08:00:00;;;;;;;2.6;1.3;;;;;;;;;;;;;
2024/04/13 08:02:25;;;;;;;2.3;1.3;;;;;;;;;;;;;
2024/04/13 08:04:50;;;;;;;3.2;1.5;;;;;;;;;;;;;
2024/04/13 08:07:15;;;;;;;3.6;1.3;;;;;;;;;;;;;
2024/04/13 08:09:41;;;;;;;2.9;1.3;;;;;;;;;;;;;
2024/04/13 08:12:06;;;;;;;2.3;1.3;;;;;;;;;;;;;
2024/04/13 08:14:31;;;;;;;5;1.4;;;;;;;;;;;;;
2024/04/13 08:16:57;;;;;;;3.7;1.3;;;;;;;;;;;;;
2024/04/13 08:19:21;;;;;;;4;1.2;;;;;;;;;;;;;
2024/04/13 08:21:46;;;;;;;2.5;1.5;;;;;;;;;;;;;
2024/04/13 08:24:11;;;;;;;4;1.6;;;;;;;;;;;;;
2024/04/13 08:26:36;;;;;;;3.7;1.5;;;;;;;;;;;;;
2024/04/13 08:29:01;;;;;;;1.6;1.1;;;;;;;;;;;;;
2024/04/13 08:31:26;;;;;;;3.3;1.2;;;;;;;;;;;;;
2024/04/13 08:33:52;;;;;;;2.2;1.3;;;;;;;;;;;;;
2024/04/13 08:36:17;;;;;;;3.9;1.4;;;;;;;;;;;;;
2024/04/13 08:38:42;;;;;;;3;1.3;;;;;;;;;;;;;
2024/04/13 08:41:07;;;;;;;3.1;1.2;;;;;;;;;;;;;
2024/04/13 08:43:32;;;;;;;4.4;1.3;;;;;;;;;;;;;
2024/04/13 08:45:57;;;;;;;2.7;1.3;;;;;;;;;;;;;
2024/04/13 08:48:24;;;;;;;4.8;1.5;;;;;;;;;;;;;
2024/04/13 08:50:49;;;;;;;4.9;1.3;;;;;;;;;;;;;
2024/04/13 08:53:13;;;;;;;2.4;1.3;;;;;;;;;;;;;
2024/04/13 08:55:38;;;;;;;4.6;1.5;;;;;;;;;;;;;
2024/04/13 08:58:03;;;;;;;4.1;1.1;;;;;;;;;;;;;
2024/04/13 09:00:28;;;;;;;2.5;1.4;;;;;;;;;;;;;
2024/04/13 09:02:53;;;;;;;4.1;1.4;;;;;;;;;;;;;
2024/04/13 09:05:19;;;;;;;3.8;1.2;;;;;;;;;;;;;
2024/04/13 09:07:44;;;;;;;3.9;1.3;;;;;;;;;;;;;
2024/04/13 09:10:09;;;;;;;2.8;1.3;;;;;;;;;;;;;
2024/04/13 09:12:34;;;;;;;4.2;1.2;;;;;;;;;;;;;
2024/04/13 09:15:01;;;;;;;2.7;1.3;;;;;;;;;;;;;
2024/04/13 09:17:25;;;;;;;3.1;1.2;;;;;;;;;;;;;
2024/04/13 09:19:51;;;;;;;4.1;1.3;;;;;;;;;;;;;
2024/04/13 09:22:16;;;;;;;2.8;1.3;;;;;;;;;;;;;
2024/04/13 09:24:41;;;;;;;3.4;1.3;;;;;;;;;;;;;
2024/04/13 09:27:06;;;;;;;4;1.4;;;;;;;;;;;;;
2024/04/13 09:29:31;;;;;;;2.6;1.5;;;;;;;;;;;;;
2024/04/13 09:31:58;;;;;;;3.4;1.5;;;;;;;;;;;;;
2024/04/13 09:34:21;;;;;;;2.2;1.2;;;;;;;;;;;;;
2024/04/13 09:36:47;;;;;;;3.7;1.5;;;;;;;;;;;;;
2024/04/13 09:39:12;;;;;;;2.6;1.2;;;;;;;;;;;;;
2024/04/13 09:41:37;;;;;;;1.9;1.4;;;;;;;;;;;;;
2024/04/13 09:44:02;;;;;;;3.3;1.4;;;;;;;;;;;;;
2024/04/13 09:46:27;;;;;;;3.4;1.4;;;;;;;;;;;;;
2024/04/13 09:48:52;;;;;;;2;1.2;;;;;;;;;;;;;
2024/04/13 09:51:17;;;;;;;2.8;1.3;;;;;;;;;;;;;
2024/04/13 09:53:42;;;;;;;3.2;1.4;;;;;;;;;;;;;
2024/04/13 09:56:09;;;;;;;3.3;1.2;;;;;;;;;;;;;
2024/04/13 09:58:33;;;;;;;2.5;1.2;;;;;;;;;;;;;
2024/04/13 10:01:01;;;;;;;3.2;1.1;;;;;;;;;;;;;
2024/04/13 10:03:23;;;;;;;4.2;1.4;;;;;;;;;;;;;
2024/04/13 10:05:49;;;;;;;4.4;1.4;;;;;;;;;;;;;
2024/04/13 10:08:13;;;;;;;3.4;1.2;;;;;;;;;;;;;
2024/04/13 10:10:39;;;;;;;2.9;1;;;;;;;;;;;;;
2024/04/13 10:13:04;;;;;;;4;1.3;;;;;;;;;;;;;
2024/04/13 10:15:29;;;;;;;3.7;1.2;;;;;;;;;;;;;
2024/04/13 10:17:54;;;;;;;3.7;1.1;;;;;;;;;;;;;
2024/04/13 10:20:19;;;;;;;2.4;1;;;;;;;;;;;;;
2024/04/13 10:22:44;;;;;;;1.8;1.2;;;;;;;;;;;;;
2024/04/13 10:25:09;;;;;;;2.4;1.1;;;;;;;;;;;;;
2024/04/13 10:27:34;;;;;;;6.5;1.2;;;;;;;;;;;;;
2024/04/13 10:29:59;;;;;;;4.7;1.7;;;;;;;;;;;;;
2024/04/13 10:32:24;;;;;;;2.9;1.4;;;;;;;;;;;;;
2024/04/13 10:34:49;;;;;;;3.2;1.4;;;;;;;;;;;;;
2024/04/13 10:37:14;;;;;;;5.1;1.2;;;;;;;;;;;;;
2024/04/13 10:39:40;;;;;;;3.5;1.6;;;;;;;;;;;;;
2024/04/13 10:42:05;;;;;;;3.2;1.6;;;;;;;;;;;;;
2024/04/13 10:44:30;;;;;;;5;1.7;;;;;;;;;;;;;
2024/04/13 10:46:55;;;;;;;6;1.6;;;;;;;;;;;;;
2024/04/13 10:49:20;;;;;;;4.9;1.7;;;;;;;;;;;;;
2024/04/13 10:51:46;;;;;;;3.5;1.8;;;;;;;;;;;;;
2024/04/13 10:54:10;;;;;;;3.7;1.7;;;;;;;;;;;;;
2024/04/13 10:56:35;;;;;;;4;1.8;;;;;;;;;;;;;
2024/04/13 10:59:00;;;;;;;4.8;1.6;;;;;;;;;;;;;
2024/04/13 11:01:25;;;;;;;4.9;2;;;;;;;;;;;;;
2024/04/13 11:03:50;;;;;;;5;2;;;;;;;;;;;;;
2024/04/13 11:06:16;;;;;;;4.5;2.1;;;;;;;;;;;;;
2024/04/13 11:08:41;;;;;;;4.9;2.2;;;;;;;;;;;;;
2024/04/13 11:11:06;;;;;;;3.6;1.8;;;;;;;;;;;;;
2024/04/13 11:13:32;;;;;;;2.2;1.7;;;;;;;;;;;;;
2024/04/13 11:15:56;;;;;;;3.4;1.6;;;;;;;;;;;;;
2024/04/13 11:18:21;;;;;;;2.8;1.7;;;;;;;;;;;;;
2024/04/13 11:20:47;;;;;;;2.5;1.7;;;;;;;;;;;;;
2024/04/13 11:23:12;;;;;;;1.6;1.3;;;;;;;;;;;;;
2024/04/13 11:25:36;;;;;;;4;1.4;;;;;;;;;;;;;
2024/04/13 11:28:03;;;;;;;3.1;1.4;;;;;;;;;;;;;
2024/04/13 11:30:27;;;;;;;3.3;1.4;;;;;;;;;;;;;
2024/04/13 11:32:52;;;;;;;3.1;1.4;;;;;;;;;;;;;
2024/04/13 11:35:17;;;;;;;3.7;1.4;;;;;;;;;;;;;
2024/04/13 11:37:42;;;;;;;1.5;1.2;;;;;;;;;;;;;
2024/04/13 11:40:08;;;;;;;2.5;1.4;;;;;;;;;;;;;
2024/04/13 11:42:32;;;;;;;5;1.3;;;;;;;;;;;;;
2024/04/13 11:44:58;;;;;;;3.1;1.2;;;;;;;;;;;;;
2024/04/13 11:47:23;;;;;;;5.9;1.4;;;;;;;;;;;;;
2024/04/13 11:49:48;;;;;;;4.1;1.4;;;;;;;;;;;;;
2024/04/13 11:52:13;;;;;;;3.2;1.4;;;;;;;;;;;;;
2024/04/13 11:54:38;;;;;;;4.8;1.7;;;;;;;;;;;;;
2024/04/13 11:57:03;;;;;;;3;1.6;;;;;;;;;;;;;
2024/04/13 11:59:28;;;;;;;3.7;1.4;;;;;;;;;;;;;
2024/04/13 12:01:54;;;;;;;3.1;1.2;;;;;;;;;;;;;
2024/04/13 12:04:18;;;;;;;2;1.3;;;;;;;;;;;;;
2024/04/13 12:06:43;;;;;;;2.3;1.3;;;;;;;;;;;;;
2024/04/13 12:09:09;;;;;;;3;1.4;;;;;;;;;;;;;
2024/04/13 12:11:34;;;;;;;4.2;1.7;;;;;;;;;;;;;
2024/04/13 12:13:59;;;;;;;4.6;1.4;;;;;;;;;;;;;
2024/04/13 12:16:24;;;;;;;2;1.2;;;;;;;;;;;;;
2024/04/13 12:18:49;;;;;;;2.1;1.5;;;;;;;;;;;;;
2024/04/13 12:21:15;;;;;;;2.7;1.7;;;;;;;;;;;;;
2024/04/13 12:23:39;;;;;;;3.6;1.5;;;;;;;;;;;;;
2024/04/13 12:26:04;;;;;;;3.3;1.3;;;;;;;;;;;;;
2024/04/13 12:28:29;;;;;;;3;1.4;;;;;;;;;;;;;
2024/04/13 12:30:55;;;;;;;4.6;1.5;;;;;;;;;;;;;
2024/04/13 12:33:19;;;;;;;4;1.3;;;;;;;;;;;;;
2024/04/13 12:35:44;;;;;;;2.4;1.2;;;;;;;;;;;;;
2024/04/13 12:38:10;;;;;;;4.7;1.8;;;;;;;;;;;;;
2024/04/13 12:40:35;;;;;;;4.2;1.4;;;;;;;;;;;;;
2024/04/13 12:43:00;;;;;;;3;1.3;;;;;;;;;;;;;
2024/04/13 12:45:25;;;;;;;2.2;1.3;;;;;;;;;;;;;
2024/04/13 12:47:51;;;;;;;4.3;1.5;;;;;;;;;;;;;
2024/04/13 12:50:16;;;;;;;2.4;1.3;;;;;;;;;;;;;
2024/04/13 12:52:41;;;;;;;2.5;1.3;;;;;;;;;;;;;
2024/04/13 12:55:08;;;;;;;4.2;1.2;;;;;;;;;;;;;
2024/04/13 12:57:31;;;;;;;2.9;1.4;;;;;;;;;;;;;
2024/04/13 12:59:56;;;;;;;3.2;1.4;;;;;;;;;;;;;
2024/04/13 13:02:21;;;;;;;5.1;1.5;;;;;;;;;;;;;
2024/04/13 13:04:46;;;;;;;3.8;1.6;;;;;;;;;;;;;
2024/04/13 13:07:12;;;;;;;2.8;1.5;;;;;;;;;;;;;
2024/04/13 13:09:37;;;;;;;2.7;1.5;;;;;;;;;;;;;
2024/04/13 13:12:02;;;;;;;3.1;1.5;;;;;;;;;;;;;
2024/04/13 13:14:27;;;;;;;3;1.5;;;;;;;;;;;;;
2024/04/13 13:16:52;;;;;;;3.6;1.6;;;;;;;;;;;;;
2024/04/13 13:19:18;;;;;;;4.4;1.8;;;;;;;;;;;;;
2024/04/13 13:21:42;;;;;;;3.6;1.4;;;;;;;;;;;;;
2024/04/13 13:24:07;;;;;;;3.2;1.4;;;;;;;;;;;;;
2024/04/13 13:26:32;;;;;;;3.4;1.6;;;;;;;;;;;;;
2024/04/13 13:29:02;;;;;;;4.7;1.6;;;;;;;;;;;;;
2024/04/13 13:31:22;;;;;;;3.6;1.5;;;;;;;;;;;;;
2024/04/13 13:33:47;;;;;;;6.7;1.7;;;;;;;;;;;;;
2024/04/13 13:36:13;;;;;;;4.1;1.9;;;;;;;;;;;;;
2024/04/13 13:38:38;;;;;;;1.9;1.7;;;;;;;;;;;;;
2024/04/13 13:41:03;;;;;;;2.2;1.5;;;;;;;;;;;;;
2024/04/13 13:43:28;;;;;;;3.7;1.7;;;;;;;;;;;;;
2024/04/13 13:45:53;;;;;;;2.8;1.6;;;;;;;;;;;;;
2024/04/13 13:48:18;;;;;;;3.7;1.4;;;;;;;;;;;;;
2024/04/13 13:50:44;;;;;;;3.5;1.7;;;;;;;;;;;;;
2024/04/13 13:53:08;;;;;;;2.2;1.3;;;;;;;;;;;;;
2024/04/13 13:55:34;;;;;;;1.9;1.3;;;;;;;;;;;;;
2024/04/13 13:58:00;;;;;;;6.1;1.6;;;;;;;;;;;;;
2024/04/13 14:00:24;;;;;;;4.2;1.6;;;;;;;;;;;;;
2024/04/13 14:02:49;;;;;;;4.8;1.6;;;;;;;;;;;;;
2024/04/13 14:05:14;;;;;;;5.9;1.8;;;;;;;;;;;;;
2024/04/13 14:07:39;;;;;;;3.2;1.4;;;;;;;;;;;;;
2024/04/13 14:10:05;;;;;;;2.2;1.5;;;;;;;;;;;;;
2024/04/13 14:12:30;;;;;;;2.5;1.6;;;;;;;;;;;;;
2024/04/13 14:14:55;;;;;;;8.1;1.7;;;;;;;;;;;;;
2024/04/13 14:17:20;;;;;;;4.1;1.7;;;;;;;;;;;;;
2024/04/13 14:19:45;;;;;;;4;1.6;;;;;;;;;;;;;
2024/04/13 14:22:11;;;;;;;2.3;1.5;;;;;;;;;;;;;
2024/04/13 14:24:35;;;;;;;3.9;1.8;;;;;;;;;;;;;
2024/04/13 14:27:01;;;;;;;3.2;1.5;;;;;;;;;;;;;
2024/04/13 14:29:26;;;;;;;4.6;1.6;;;;;;;;;;;;;
2024/04/13 14:31:51;;;;;;;3.5;1.6;;;;;;;;;;;;;
2024/04/13 14:34:16;;;;;;;5;1.6;;;;;;;;;;;;;
2024/04/13 14:36:41;;;;;;;3.8;1.3;;;;;;;;;;;;;
2024/04/13 14:39:07;;;;;;;2.9;1.5;;;;;;;;;;;;;
2024/04/13 14:41:31;;;;;;;5.1;1.6;;;;;;;;;;;;;
2024/04/13 14:43:56;;;;;;;3.6;1.6;;;;;;;;;;;;;
2024/04/13 14:46:22;;;;;;;4;1.8;;;;;;;;;;;;;
2024/04/13 14:48:47;;;;;;;3.3;1.6;;;;;;;;;;;;;
2024/04/13 14:51:12;;;;;;;4.4;1.5;;;;;;;;;;;;;
2024/04/13 14:53:37;;;;;;;3.1;1.5;;;;;;;;;;;;;
2024/04/13 14:56:02;;;;;;;4.4;1.4;;;;;;;;;;;;;
2024/04/13 14:58:27;;;;;;;2.9;1.4;;;;;;;;;;;;;
2024/04/13 15:00:52;;;;;;;3.6;1.5;;;;;;;;;;;;;
2024/04/13 15:03:18;;;;;;;4.5;1.8;;;;;;;;;;;;;
2024/04/13 15:05:42;;;;;;;2.3;1.4;;;;;;;;;;;;;
2024/04/13 15:08:07;;;;;;;2.7;1.4;;;;;;;;;;;;;
2024/04/13 15:10:32;;;;;;;4;1.6;;;;;;;;;;;;;
2024/04/13 15:12:58;;;;;;;3;1.8;;;;;;;;;;;;;
2024/04/13 15:15:23;;;;;;;5.8;1.8;;;;;;;;;;;;;
2024/04/13 15:17:48;;;;;;;2.6;1.6;;;;;;;;;;;;;
2024/04/13 15:20:13;;;;;;;3.1;1.9;;;;;;;;;;;;;
2024/04/13 15:22:38;;;;;;;9.3;2.1;;;;;;;;;;;;;
2024/04/13 15:25:03;;;;;;;9.6;1.9;;;;;;;;;;;;;
2024/04/13 15:27:28;;;;;;;4.1;2;;;;;;;;;;;;;
2024/04/13 15:29:54;;;;;;;2.8;1.6;;;;;;;;;;;;;
2024/04/13 15:32:19;;;;;;;3.2;1.9;;;;;;;;;;;;;
2024/04/13 15:34:44;;;;;;;4.2;1.8;;;;;;;;;;;;;
2024/04/13 15:37:09;;;;;;;2.7;1.8;;;;;;;;;;;;;
2024/04/13 15:39:34;;;;;;;3.2;1.6;;;;;;;;;;;;;
2024/04/13 15:41:59;;;;;;;3;1.5;;;;;;;;;;;;;
2024/04/13 15:44:25;;;;;;;4.1;1.8;;;;;;;;;;;;;
2024/04/13 15:46:49;;;;;;;4.2;1.6;;;;;;;;;;;;;
2024/04/13 15:49:14;;;;;;;3;1.6;;;;;;;;;;;;;
2024/04/13 15:51:40;;;;;;;3.5;1.6;;;;;;;;;;;;;
2024/04/13 15:54:05;;;;;;;2.4;1.4;;;;;;;;;;;;;
2024/04/13 15:56:30;;;;;;;2.8;1.5;;;;;;;;;;;;;
2024/04/13 15:58:55;;;;;;;2.6;1.5;;;;;;;;;;;;;
2024/04/13 16:01:20;;;;;;;2.8;1.5;;;;;;;;;;;;;
2024/04/13 16:03:46;;;;;;;5.1;1.7;;;;;;;;;;;;;
2024/04/13 16:06:11;;;;;;;3;1.5;;;;;;;;;;;;;
2024/04/13 16:08:36;;;;;;;2.3;1.4;;;;;;;;;;;;;
2024/04/13 16:11:01;;;;;;;2.6;1.4;;;;;;;;;;;;;
2024/04/13 16:13:28;;;;;;;2.5;1.6;;;;;;;;;;;;;
2024/04/13 16:15:52;;;;;;;3;1.6;;;;;;;;;;;;;
2024/04/13 16:18:16;;;;;;;4.4;1.6;;;;;;;;;;;;;
2024/04/13 16:20:42;;;;;;;2.2;1.6;;;;;;;;;;;;;
2024/04/13 16:23:07;;;;;;;4.6;1.8;;;;;;;;;;;;;
2024/04/13 16:25:32;;;;;;;1.6;1.4;;;;;;;;;;;;;
2024/04/13 16:28:00;;;;;;;2.1;1.4;;;;;;;;;;;;;
2024/04/13 16:30:22;;;;;;;2.1;1.3;;;;;;;;;;;;;
2024/04/13 16:32:47;;;;;;;4.1;1.7;;;;;;;;;;;;;
2024/04/13 16:35:13;;;;;;;3.4;1.6;;;;;;;;;;;;;
2024/04/13 16:37:38;;;;;;;3;1.6;;;;;;;;;;;;;
2024/04/13 16:40:03;;;;;;;4.3;1.6;;;;;;;;;;;;;
2024/04/13 16:42:29;;;;;;;2.6;1.6;;;;;;;;;;;;;
2024/04/13 16:44:53;;;;;;;3.8;1.6;;;;;;;;;;;;;
2024/04/13 16:47:19;;;;;;;5.8;1.7;;;;;;;;;;;;;
2024/04/13 16:49:44;;;;;;;3.5;1.8;;;;;;;;;;;;;
2024/04/13 16:52:09;;;;;;;3.4;1.7;;;;;;;;;;;;;
2024/04/13 16:54:34;;;;;;;2.7;1.5;;;;;;;;;;;;;
2024/04/13 16:56:59;;;;;;;4.8;2.2;;;;;;;;;;;;;
2024/04/13 16:59:24;;;;;;;2.8;1.8;;;;;;;;;;;;;
2024/04/13 17:01:49;;;;;;;2.9;1.9;;;;;;;;;;;;;
2024/04/13 17:04:15;;;;;;;5.1;2.2;;;;;;;;;;;;;
2024/04/13 17:06:41;;;;;;;5.2;2.6;;;;;;;;;;;;;
2024/04/13 17:09:05;;;;;;;3.5;2.4;;;;;;;;;;;;;
2024/04/13 17:11:30;;;;;;;4.3;2.3;;;;;;;;;;;;;
2024/04/13 17:13:55;;;;;;;3.7;2.3;;;;;;;;;;;;;
2024/04/13 17:16:23;;;;;;;7.8;2.4;;;;;;;;;;;;;
2024/04/13 17:18:46;;;;;;;3.3;1.9;;;;;;;;;;;;;
2024/04/13 17:21:12;;;;;;;6.1;2.4;;;;;;;;;;;;;
2024/04/13 17:23:39;;;;;;;5.9;2.3;;;;;;;;;;;;;
2024/04/13 17:26:01;;;;;;;2.7;2.1;;;;;;;;;;;;;
2024/04/13 17:28:26;;;;;;;4.1;2.4;;;;;;;;;;;;;
2024/04/13 17:30:51;;;;;;;3.2;2.3;;;;;;;;;;;;;
2024/04/13 17:33:17;;;;;;;7;2.7;;;;;;;;;;;;;
2024/04/13 17:35:42;;;;;;;5;3;;;;;;;;;;;;;
2024/04/13 17:38:07;;;;;;;4.7;2.5;;;;;;;;;;;;;
2024/04/13 17:40:33;;;;;;;7.2;2.6;;;;;;;;;;;;;
2024/04/13 17:42:57;;;;;;;6.8;3.6;;;;;;;;;;;;;
2024/04/13 17:45:22;;;;;;;14;7;;;;;;;;;;;;;
2024/04/13 17:47:47;;;;;;;16.1;7.2;;;;;;;;;;;;;
2024/04/13 17:50:12;;;;;;;7.8;4.3;;;;;;;;;;;;;
2024/04/13 17:52:38;;;;;;;8.6;4.5;;;;;;;;;;;;;
2024/04/13 17:55:03;;;;;;;7.3;4;;;;;;;;;;;;;
2024/04/13 17:57:29;;;;;;;10.3;4;;;;;;;;;;;;;
2024/04/13 17:59:53;;;;;;;6.3;3.2;;;;;;;;;;;;;
2024/04/13 18:02:19;;;;;;;6.8;3.4;;;;;;;;;;;;;
2024/04/13 18:04:43;;;;;;;5.8;3;;;;;;;;;;;;;
2024/04/13 18:07:08;;;;;;;6.1;2.9;;;;;;;;;;;;;
2024/04/13 18:09:34;;;;;;;5.5;3.1;;;;;;;;;;;;;
2024/04/13 18:12:01;;;;;;;3.6;2.3;;;;;;;;;;;;;
2024/04/13 18:14:24;;;;;;;8.4;3.2;;;;;;;;;;;;;
2024/04/13 18:16:49;;;;;;;6.2;3;;;;;;;;;;;;;
2024/04/13 18:19:14;;;;;;;6.8;2.4;;;;;;;;;;;;;
2024/04/13 18:21:40;;;;;;;5.4;2.5;;;;;;;;;;;;;
2024/04/13 18:24:05;;;;;;;5.4;2.7;;;;;;;;;;;;;
2024/04/13 18:26:30;;;;;;;6.9;3;;;;;;;;;;;;;
2024/04/13 18:28:54;;;;;;;9.6;3.4;;;;;;;;;;;;;
2024/04/13 18:31:20;;;;;;;5.1;2.6;;;;;;;;;;;;;
2024/04/13 18:33:45;;;;;;;6;2.6;;;;;;;;;;;;;
2024/04/13 18:36:10;;;;;;;5.9;2.5;;;;;;;;;;;;;
2024/04/13 18:38:35;;;;;;;4.8;2.7;;;;;;;;;;;;;
2024/04/13 18:41:02;;;;;;;5.4;3.3;;;;;;;;;;;;;
2024/04/13 18:43:25;;;;;;;6.9;3.4;;;;;;;;;;;;;
2024/04/13 18:45:50;;;;;;;9.1;4.1;;;;;;;;;;;;;
2024/04/13 18:48:16;;;;;;;6.4;3.8;;;;;;;;;;;;;
2024/04/13 18:50:41;;;;;;;7.4;4;;;;;;;;;;;;;
2024/04/13 18:53:06;;;;;;;5.1;3.2;;;;;;;;;;;;;
2024/04/13 18:55:33;;;;;;;5.3;3.3;;;;;;;;;;;;;
2024/04/13 18:57:56;;;;;;;5.9;2.8;;;;;;;;;;;;;
2024/04/13 19:00:21;;;;;;;5.6;2.3;;;;;;;;;;;;;
2024/04/13 19:02:47;;;;;;;6.5;2.7;;;;;;;;;;;;;
2024/04/13 19:05:12;;;;;;;6.1;2.7;;;;;;;;;;;;;
2024/04/13 19:07:37;;;;;;;5.9;2.8;;;;;;;;;;;;;
2024/04/13 19:10:02;;;;;;;6.3;2.4;;;;;;;;;;;;;
2024/04/13 19:12:27;;;;;;;5.4;2.3;;;;;;;;;;;;;
2024/04/13 19:14:52;;;;;;;5.4;2.3;;;;;;;;;;;;;
2024/04/13 19:17:18;;;;;;;2.2;1.9;;;;;;;;;;;;;
2024/04/13 19:19:43;;;;;;;4.5;2.1;;;;;;;;;;;;;
2024/04/13 19:22:08;;;;;;;5.5;2.7;;;;;;;;;;;;;
2024/04/13 19:24:33;;;;;;;5.9;2.5;;;;;;;;;;;;;
2024/04/13 19:26:58;;;;;;;5.4;2.8;;;;;;;;;;;;;
2024/04/13 19:29:23;;;;;;;5.4;3;;;;;;;;;;;;;
2024/04/13 19:31:48;;;;;;;4.6;2.3;;;;;;;;;;;;;
2024/04/13 19:34:14;;;;;;;4.2;2.8;;;;;;;;;;;;;
2024/04/13 19:36:38;;;;;;;4.3;2.4;;;;;;;;;;;;;
2024/04/13 19:39:03;;;;;;;4.4;2.3;;;;;;;;;;;;;
2024/04/13 19:41:29;;;;;;;4.3;2.4;;;;;;;;;;;;;
2024/04/13 19:43:54;;;;;;;5.7;2.3;;;;;;;;;;;;;
2024/04/13 19:46:19;;;;;;;4.4;2.5;;;;;;;;;;;;;
2024/04/13 19:48:44;;;;;;;4.8;2.2;;;;;;;;;;;;;
2024/04/13 19:51:11;;;;;;;5.2;2;;;;;;;;;;;;;
2024/04/13 19:53:35;;;;;;;3.5;2;;;;;;;;;;;;;
2024/04/13 19:56:00;;;;;;;4.8;2.7;;;;;;;;;;;;;
2024/04/13 19:58:24;;;;;;;4.5;2.5;;;;;;;;;;;;;
2024/04/13 20:00:50;;;;;;;5.8;2.8;;;;;;;;;;;;;
2024/04/13 20:03:15;;;;;;;4.7;2.9;;;;;;;;;;;;;
2024/04/13 20:05:40;;;;;;;4.7;3.1;;;;;;;;;;;;;
2024/04/13 20:08:05;;;;;;;5.8;3.7;;;;;;;;;;;;;
2024/04/13 20:10:30;;;;;;;6.1;3.8;;;;;;;;;;;;;
2024/04/13 20:12:55;;;;;;;7.1;3.1;;;;;;;;;;;;;
2024/04/13 20:20:11;;;;;;;7.1;3.8;;;;;;;;;;;;;
2024/04/13 20:22:37;;;;;;;3.6;3.3;;;;;;;;;;;;;
2024/04/13 20:25:01;;;;;;;5.7;3.5;;;;;;;;;;;;;
2024/04/13 20:27:26;;;;;;;6.6;3.6;;;;;;;;;;;;;
2024/04/13 20:29:52;;;;;;;5.6;3.7;;;;;;;;;;;;;
2024/04/13 20:32:16;;;;;;;6.5;4;;;;;;;;;;;;;
2024/04/13 20:34:41;;;;;;;8.5;4.5;;;;;;;;;;;;;